Observations for BELFAST ALDERGROVE, United Kingdom (EGAA)

EGAA 240920Z 06005KT 9999 OVC012 15/13 Q1017
EGAA 240850Z 06005KT 9999 SCT010 OVC026 15/13 Q1017 
EGAA 240820Z 06005KT 020V090 9999 OVC027 14/13 Q1016
EGAA 240750Z 08007KT 9999 OVC028 14/12 Q1016
EGAA 240720Z 08009KT 9999 OVC026 13/12 Q1016
EGAA 240650Z 08009KT 9999 FEW003 BKN016 OVC026 13/12 Q1016  
EGAA 240620Z 07007KT 9999 FEW003 BKN010 OVC012 13/12 Q1016  
EGAA 240550Z 06007KT 9999 FEW003 BKN007 OVC012 12/11 Q1016  
EGAA 240520Z 07005KT 9999 SCT004 BKN008 12/11 Q1016 
EGAA 240450Z 08009KT 9999 BKN004 BKN008 12/11 Q1016 
EGAA 240420Z 08009KT 9999 BKN005 12/11 Q1016
EGAA 240350Z 09015KT 9999 BKN007 12/11 Q1016
EGAA 240320Z 10014KT 9999 SCT005 BKN035 12/11 Q1016 
EGAA 240250Z 10016KT 9999 SCT004 BKN043 12/11 Q1016 
EGAA 240220Z 10018KT 9999 -RA SCT005 BKN008 12/10 Q1016 
EGAA 240150Z 10017KT 9999 BKN006 BKN010 12/10 Q1016 
EGAA 240120Z 09017KT 9999 -RA FEW007 SCT046 12/10 Q1016 RERA
EGAA 232350Z 10013KT 8000 RA SCT028 BKN034 BKN041 12/10 Q1018 RERA  
EGAA 232320Z 09010KT 9999 -RA SCT043 13/10 Q1018
EGAA 232250Z 09009KT 9999 -RA NSC 13/10 Q1017   
EGAA 232220Z 10009KT CAVOK 14/10 Q1017  
EGAA 232150Z 11011KT CAVOK 14/11 Q1017  
EGAA 232120Z 10010KT 9999 -SHRA FEW029 SCT046 14/11 Q1017   
EGAA 232050Z 11011KT 9999 -SHRA FEW025 SCT035 15/11 Q1017   
EGAA 232020Z 11014KT 9999 FEW014 16/11 Q1017
EGAA 231950Z 11009KT 9999 SCT032 16/11 Q1017
EGAA 231920Z 08007KT 9999 FEW034 SCT040 BKN047 16/11 Q1017  
EGAA 231850Z 11008KT 9999 SCT034 16/11 Q1017
EGAA 231820Z 09008KT 050V120 9999 FEW024 17/11 Q1017
EGAA 231750Z 09006KT 060V130 CAVOK 17/11 Q1017  
EGAA 231720Z 10008KT CAVOK 17/11 Q1017  
EGAA 231650Z 12011KT CAVOK 17/10 Q1017  
EGAA 231620Z 12010KT CAVOK 17/10 Q1017  
EGAA 231550Z 13010KT CAVOK 17/10 Q1017  
EGAA 231520Z 14012KT CAVOK 17/09 Q1018  
EGAA 231450Z 14011KT CAVOK 17/09 Q1018  
EGAA 231420Z 12013KT CAVOK 17/09 Q1017  
EGAA 231350Z 14010KT CAVOK 18/08 Q1017  
EGAA 231320Z 13014KT 9999 FEW044 18/07 Q1017
EGAA 231250Z 13015KT CAVOK 18/08 Q1017  
EGAA 231220Z 14016KT CAVOK 18/08 Q1018  
EGAA 231150Z 14013KT CAVOK 17/08 Q1018  
EGAA 231120Z 13014KT CAVOK 18/09 Q1018  
EGAA 231050Z 13013KT 090V160 CAVOK 19/11 Q1018  
EGAA 231020Z 13010KT CAVOK 18/11 Q1018  
EGAA 230950Z 12010KT CAVOK 17/12 Q1018  
EGAA 230920Z 12011KT CAVOK 16/12 Q1018  
EGAA 230850Z 12011KT CAVOK 16/12 Q1018